sensor_id;sensor_type;location;lat;lon;timestamp;P1;durP1;ratioP1;P2;durP2;ratioP2
73575;SDS011;61859;49.204;8.140;2023-12-20T00:00:16;7.03;;;5.30;;
73575;SDS011;61859;49.204;8.140;2023-12-20T00:02:42;7.43;;;5.40;;
73575;SDS011;61859;49.204;8.140;2023-12-20T00:05:11;9.50;;;6.30;;
73575;SDS011;61859;49.204;8.140;2023-12-20T00:07:38;6.73;;;5.23;;
73575;SDS011;61859;49.204;8.140;2023-12-20T00:10:04;6.70;;;4.80;;
73575;SDS011;61859;49.204;8.140;2023-12-20T00:12:29;5.43;;;3.90;;
73575;SDS011;61859;49.204;8.140;2023-12-20T00:14:55;5.77;;;4.40;;
73575;SDS011;61859;49.204;8.140;2023-12-20T00:17:20;5.13;;;4.17;;
73575;SDS011;61859;49.204;8.140;2023-12-20T00:19:46;5.50;;;4.43;;
73575;SDS011;61859;49.204;8.140;2023-12-20T00:22:11;8.07;;;4.67;;
73575;SDS011;61859;49.204;8.140;2023-12-20T00:24:37;3.90;;;3.10;;
73575;SDS011;61859;49.204;8.140;2023-12-20T00:27:02;4.23;;;3.37;;
73575;SDS011;61859;49.204;8.140;2023-12-20T00:29:28;5.33;;;3.77;;
73575;SDS011;61859;49.204;8.140;2023-12-20T00:31:54;5.53;;;4.33;;
73575;SDS011;61859;49.204;8.140;2023-12-20T00:34:19;5.53;;;4.10;;
73575;SDS011;61859;49.204;8.140;2023-12-20T00:36:45;4.20;;;3.57;;
73575;SDS011;61859;49.204;8.140;2023-12-20T00:39:10;5.73;;;4.13;;
73575;SDS011;61859;49.204;8.140;2023-12-20T00:41:36;3.97;;;2.87;;
73575;SDS011;61859;49.204;8.140;2023-12-20T00:44:02;3.80;;;3.07;;
73575;SDS011;61859;49.204;8.140;2023-12-20T00:46:27;4.63;;;3.93;;
73575;SDS011;61859;49.204;8.140;2023-12-20T00:48:53;5.20;;;3.87;;
73575;SDS011;61859;49.204;8.140;2023-12-20T00:51:19;5.87;;;4.53;;
73575;SDS011;61859;49.204;8.140;2023-12-20T00:53:44;4.70;;;3.80;;
73575;SDS011;61859;49.204;8.140;2023-12-20T00:56:11;4.83;;;4.00;;
73575;SDS011;61859;49.204;8.140;2023-12-20T00:58:36;6.07;;;4.03;;
73575;SDS011;61859;49.204;8.140;2023-12-20T01:01:02;5.80;;;4.40;;
73575;SDS011;61859;49.204;8.140;2023-12-20T01:03:27;8.67;;;4.20;;
73575;SDS011;61859;49.204;8.140;2023-12-20T01:05:53;6.00;;;4.30;;
73575;SDS011;61859;49.204;8.140;2023-12-20T01:08:19;8.20;;;4.90;;
73575;SDS011;61859;49.204;8.140;2023-12-20T01:10:44;6.27;;;4.33;;
73575;SDS011;61859;49.204;8.140;2023-12-20T01:13:11;6.77;;;4.77;;
73575;SDS011;61859;49.204;8.140;2023-12-20T01:15:37;8.50;;;4.27;;
73575;SDS011;61859;49.204;8.140;2023-12-20T01:18:02;5.00;;;3.73;;
73575;SDS011;61859;49.204;8.140;2023-12-20T01:20:28;4.60;;;3.40;;
73575;SDS011;61859;49.204;8.140;2023-12-20T01:22:54;3.53;;;3.13;;
73575;SDS011;61859;49.204;8.140;2023-12-20T01:25:19;4.87;;;3.40;;
73575;SDS011;61859;49.204;8.140;2023-12-20T01:27:45;4.37;;;2.80;;
73575;SDS011;61859;49.204;8.140;2023-12-20T01:30:10;6.97;;;3.90;;
73575;SDS011;61859;49.204;8.140;2023-12-20T01:32:36;8.10;;;5.70;;
73575;SDS011;61859;49.204;8.140;2023-12-20T01:35:01;2.13;;;1.90;;
73575;SDS011;61859;49.204;8.140;2023-12-20T01:37:27;0.87;;;0.70;;
73575;SDS011;61859;49.204;8.140;2023-12-20T01:39:54;0.80;;;0.60;;
73575;SDS011;61859;49.204;8.140;2023-12-20T01:42:19;1.80;;;1.70;;
73575;SDS011;61859;49.204;8.140;2023-12-20T01:44:45;0.20;;;0.20;;
73575;SDS011;61859;49.204;8.140;2023-12-20T01:47:10;0.37;;;0.37;;
73575;SDS011;61859;49.204;8.140;2023-12-20T01:49:37;0.23;;;0.23;;
73575;SDS011;61859;49.204;8.140;2023-12-20T01:52:02;0.40;;;0.40;;
73575;SDS011;61859;49.204;8.140;2023-12-20T01:54:28;0.30;;;0.30;;
73575;SDS011;61859;49.204;8.140;2023-12-20T01:56:55;0.20;;;0.20;;
73575;SDS011;61859;49.204;8.140;2023-12-20T01:59:20;0.30;;;0.30;;
73575;SDS011;61859;49.204;8.140;2023-12-20T02:01:46;0.17;;;0.17;;
73575;SDS011;61859;49.204;8.140;2023-12-20T02:04:12;1.40;;;1.30;;
73575;SDS011;61859;49.204;8.140;2023-12-20T02:06:38;0.70;;;0.70;;
73575;SDS011;61859;49.204;8.140;2023-12-20T02:09:05;0.60;;;0.50;;
73575;SDS011;61859;49.204;8.140;2023-12-20T02:11:32;0.27;;;0.27;;
73575;SDS011;61859;49.204;8.140;2023-12-20T02:13:58;0.40;;;0.30;;
73575;SDS011;61859;49.204;8.140;2023-12-20T02:16:24;0.40;;;0.40;;
73575;SDS011;61859;49.204;8.140;2023-12-20T02:18:49;0.50;;;0.50;;
73575;SDS011;61859;49.204;8.140;2023-12-20T02:21:15;0.57;;;0.57;;
73575;SDS011;61859;49.204;8.140;2023-12-20T02:23:40;1.33;;;1.23;;
73575;SDS011;61859;49.204;8.140;2023-12-20T02:26:06;0.60;;;0.60;;
73575;SDS011;61859;49.204;8.140;2023-12-20T02:28:32;0.50;;;0.50;;
73575;SDS011;61859;49.204;8.140;2023-12-20T02:30:58;1.03;;;0.70;;
73575;SDS011;61859;49.204;8.140;2023-12-20T02:33:24;0.70;;;0.70;;
73575;SDS011;61859;49.204;8.140;2023-12-20T02:35:49;0.50;;;0.47;;
73575;SDS011;61859;49.204;8.140;2023-12-20T02:38:15;0.40;;;0.30;;
73575;SDS011;61859;49.204;8.140;2023-12-20T02:40:40;0.50;;;0.50;;
73575;SDS011;61859;49.204;8.140;2023-12-20T02:43:06;0.70;;;0.67;;
73575;SDS011;61859;49.204;8.140;2023-12-20T02:45:31;1.30;;;1.20;;
73575;SDS011;61859;49.204;8.140;2023-12-20T02:47:57;0.63;;;0.63;;
73575;SDS011;61859;49.204;8.140;2023-12-20T02:50:22;1.00;;;0.90;;
73575;SDS011;61859;49.204;8.140;2023-12-20T02:52:48;2.10;;;1.60;;
73575;SDS011;61859;49.204;8.140;2023-12-20T02:55:14;2.80;;;2.27;;
73575;SDS011;61859;49.204;8.140;2023-12-20T02:57:39;0.83;;;0.83;;
73575;SDS011;61859;49.204;8.140;2023-12-20T03:00:08;1.10;;;1.07;;
73575;SDS011;61859;49.204;8.140;2023-12-20T03:02:34;0.40;;;0.40;;
73575;SDS011;61859;49.204;8.140;2023-12-20T03:05:00;0.33;;;0.33;;
73575;SDS011;61859;49.204;8.140;2023-12-20T03:07:26;0.20;;;0.20;;
73575;SDS011;61859;49.204;8.140;2023-12-20T03:09:52;0.40;;;0.40;;
73575;SDS011;61859;49.204;8.140;2023-12-20T03:12:17;0.50;;;0.40;;
73575;SDS011;61859;49.204;8.140;2023-12-20T03:14:43;0.47;;;0.47;;
73575;SDS011;61859;49.204;8.140;2023-12-20T03:17:09;0.33;;;0.33;;
73575;SDS011;61859;49.204;8.140;2023-12-20T03:19:35;0.40;;;0.10;;
73575;SDS011;61859;49.204;8.140;2023-12-20T03:22:00;0.50;;;0.37;;
73575;SDS011;61859;49.204;8.140;2023-12-20T03:24:26;0.20;;;0.20;;
73575;SDS011;61859;49.204;8.140;2023-12-20T03:26:52;0.30;;;0.30;;
73575;SDS011;61859;49.204;8.140;2023-12-20T03:29:17;0.40;;;0.40;;
73575;SDS011;61859;49.204;8.140;2023-12-20T03:31:43;0.57;;;0.57;;
73575;SDS011;61859;49.204;8.140;2023-12-20T03:34:08;0.30;;;0.30;;
73575;SDS011;61859;49.204;8.140;2023-12-20T03:36:34;0.70;;;0.70;;
73575;SDS011;61859;49.204;8.140;2023-12-20T03:38:59;0.77;;;0.77;;
73575;SDS011;61859;49.204;8.140;2023-12-20T03:41:25;0.50;;;0.50;;
73575;SDS011;61859;49.204;8.140;2023-12-20T03:43:50;0.43;;;0.33;;
73575;SDS011;61859;49.204;8.140;2023-12-20T03:46:16;0.80;;;0.63;;
73575;SDS011;61859;49.204;8.140;2023-12-20T03:48:41;0.80;;;0.80;;
73575;SDS011;61859;49.204;8.140;2023-12-20T03:51:07;0.90;;;0.90;;
73575;SDS011;61859;49.204;8.140;2023-12-20T03:53:32;0.70;;;0.70;;
73575;SDS011;61859;49.204;8.140;2023-12-20T03:55:58;1.00;;;0.90;;
73575;SDS011;61859;49.204;8.140;2023-12-20T03:58:24;1.30;;;1.20;;
73575;SDS011;61859;49.204;8.140;2023-12-20T04:00:50;1.47;;;1.03;;
73575;SDS011;61859;49.204;8.140;2023-12-20T04:03:15;0.90;;;0.90;;
73575;SDS011;61859;49.204;8.140;2023-12-20T04:05:41;1.23;;;1.13;;
73575;SDS011;61859;49.204;8.140;2023-12-20T04:08:06;1.60;;;1.50;;
73575;SDS011;61859;49.204;8.140;2023-12-20T04:10:33;2.70;;;1.30;;
73575;SDS011;61859;49.204;8.140;2023-12-20T04:12:58;1.53;;;1.43;;
73575;SDS011;61859;49.204;8.140;2023-12-20T04:15:23;1.77;;;1.67;;
73575;SDS011;61859;49.204;8.140;2023-12-20T04:17:49;1.97;;;1.63;;
73575;SDS011;61859;49.204;8.140;2023-12-20T04:20:15;1.60;;;1.50;;
73575;SDS011;61859;49.204;8.140;2023-12-20T04:22:40;2.53;;;1.80;;
73575;SDS011;61859;49.204;8.140;2023-12-20T04:25:07;1.50;;;1.40;;
73575;SDS011;61859;49.204;8.140;2023-12-20T04:27:33;1.20;;;1.10;;
73575;SDS011;61859;49.204;8.140;2023-12-20T04:29:58;1.80;;;1.70;;
73575;SDS011;61859;49.204;8.140;2023-12-20T04:32:24;1.60;;;1.50;;
73575;SDS011;61859;49.204;8.140;2023-12-20T04:34:50;1.93;;;1.77;;
73575;SDS011;61859;49.204;8.140;2023-12-20T04:37:15;1.30;;;1.20;;
73575;SDS011;61859;49.204;8.140;2023-12-20T04:39:41;1.90;;;1.70;;
73575;SDS011;61859;49.204;8.140;2023-12-20T04:42:07;2.03;;;1.83;;
73575;SDS011;61859;49.204;8.140;2023-12-20T04:44:33;1.80;;;1.63;;
73575;SDS011;61859;49.204;8.140;2023-12-20T04:46:58;2.00;;;1.40;;
73575;SDS011;61859;49.204;8.140;2023-12-20T04:49:24;1.97;;;1.77;;
73575;SDS011;61859;49.204;8.140;2023-12-20T04:51:49;3.20;;;2.60;;
73575;SDS011;61859;49.204;8.140;2023-12-20T04:54:15;3.00;;;2.80;;
73575;SDS011;61859;49.204;8.140;2023-12-20T04:56:41;3.30;;;2.33;;
73575;SDS011;61859;49.204;8.140;2023-12-20T04:59:06;2.47;;;2.27;;
73575;SDS011;61859;49.204;8.140;2023-12-20T05:01:32;2.27;;;2.07;;
73575;SDS011;61859;49.204;8.140;2023-12-20T05:03:57;2.57;;;1.90;;
73575;SDS011;61859;49.204;8.140;2023-12-20T05:06:23;5.33;;;2.00;;
73575;SDS011;61859;49.204;8.140;2023-12-20T05:08:49;2.70;;;2.50;;
73575;SDS011;61859;49.204;8.140;2023-12-20T05:11:15;1.37;;;1.23;;
73575;SDS011;61859;49.204;8.140;2023-12-20T05:13:41;2.40;;;2.17;;
73575;SDS011;61859;49.204;8.140;2023-12-20T05:16:06;2.50;;;2.20;;
73575;SDS011;61859;49.204;8.140;2023-12-20T05:18:32;2.07;;;1.90;;
73575;SDS011;61859;49.204;8.140;2023-12-20T05:20:57;2.50;;;2.13;;
73575;SDS011;61859;49.204;8.140;2023-12-20T05:23:23;1.90;;;1.70;;
73575;SDS011;61859;49.204;8.140;2023-12-20T05:25:49;2.03;;;1.90;;
73575;SDS011;61859;49.204;8.140;2023-12-20T05:28:15;2.40;;;2.20;;
73575;SDS011;61859;49.204;8.140;2023-12-20T05:30:40;2.30;;;2.10;;
73575;SDS011;61859;49.204;8.140;2023-12-20T05:33:06;2.83;;;2.00;;
73575;SDS011;61859;49.204;8.140;2023-12-20T05:35:31;2.10;;;1.90;;
73575;SDS011;61859;49.204;8.140;2023-12-20T05:37:57;2.40;;;2.20;;
73575;SDS011;61859;49.204;8.140;2023-12-20T05:40:22;2.27;;;2.07;;
73575;SDS011;61859;49.204;8.140;2023-12-20T05:42:48;3.03;;;2.73;;
73575;SDS011;61859;49.204;8.140;2023-12-20T05:45:14;2.40;;;2.20;;
73575;SDS011;61859;49.204;8.140;2023-12-20T05:47:40;2.93;;;2.60;;
73575;SDS011;61859;49.204;8.140;2023-12-20T05:50:06;2.63;;;2.10;;
73575;SDS011;61859;49.204;8.140;2023-12-20T05:52:31;2.43;;;2.23;;
73575;SDS011;61859;49.204;8.140;2023-12-20T05:54:57;3.00;;;2.70;;
73575;SDS011;61859;49.204;8.140;2023-12-20T05:57:26;2.30;;;1.90;;
73575;SDS011;61859;49.204;8.140;2023-12-20T05:59:52;2.40;;;2.20;;
73575;SDS011;61859;49.204;8.140;2023-12-20T06:02:17;5.57;;;2.40;;
73575;SDS011;61859;49.204;8.140;2023-12-20T06:04:43;3.07;;;2.73;;
73575;SDS011;61859;49.204;8.140;2023-12-20T06:07:11;3.00;;;2.70;;
73575;SDS011;61859;49.204;8.140;2023-12-20T06:09:37;2.60;;;2.40;;
73575;SDS011;61859;49.204;8.140;2023-12-20T06:12:02;3.43;;;2.40;;
73575;SDS011;61859;49.204;8.140;2023-12-20T06:14:28;2.40;;;2.20;;
73575;SDS011;61859;49.204;8.140;2023-12-20T06:16:55;3.43;;;3.13;;
73575;SDS011;61859;49.204;8.140;2023-12-20T06:19:21;2.70;;;2.50;;
73575;SDS011;61859;49.204;8.140;2023-12-20T06:21:47;2.50;;;2.30;;
73575;SDS011;61859;49.204;8.140;2023-12-20T06:24:12;3.03;;;2.73;;
73575;SDS011;61859;49.204;8.140;2023-12-20T06:26:38;2.47;;;2.27;;
73575;SDS011;61859;49.204;8.140;2023-12-20T06:29:03;3.30;;;3.00;;
73575;SDS011;61859;49.204;8.140;2023-12-20T06:31:29;3.83;;;3.27;;
73575;SDS011;61859;49.204;8.140;2023-12-20T06:33:55;3.57;;;2.90;;
73575;SDS011;61859;49.204;8.140;2023-12-20T06:36:23;2.90;;;2.63;;
73575;SDS011;61859;49.204;8.140;2023-12-20T06:38:49;3.27;;;2.97;;
73575;SDS011;61859;49.204;8.140;2023-12-20T06:41:15;2.60;;;2.40;;
73575;SDS011;61859;49.204;8.140;2023-12-20T06:43:41;3.43;;;3.13;;
73575;SDS011;61859;49.204;8.140;2023-12-20T06:46:07;3.43;;;2.90;;
73575;SDS011;61859;49.204;8.140;2023-12-20T06:48:33;3.20;;;2.90;;
73575;SDS011;61859;49.204;8.140;2023-12-20T06:50:59;4.63;;;3.00;;
73575;SDS011;61859;49.204;8.140;2023-12-20T06:53:27;3.40;;;3.10;;
73575;SDS011;61859;49.204;8.140;2023-12-20T06:55:52;3.20;;;2.90;;
73575;SDS011;61859;49.204;8.140;2023-12-20T06:58:18;2.10;;;1.90;;
73575;SDS011;61859;49.204;8.140;2023-12-20T07:00:43;3.00;;;2.70;;
73575;SDS011;61859;49.204;8.140;2023-12-20T07:03:09;2.60;;;2.40;;
73575;SDS011;61859;49.204;8.140;2023-12-20T07:05:35;2.83;;;2.50;;
73575;SDS011;61859;49.204;8.140;2023-12-20T07:08:00;3.93;;;2.93;;
73575;SDS011;61859;49.204;8.140;2023-12-20T07:10:26;2.10;;;1.90;;
73575;SDS011;61859;49.204;8.140;2023-12-20T07:12:51;3.90;;;2.03;;
73575;SDS011;61859;49.204;8.140;2023-12-20T07:15:20;2.20;;;2.00;;
73575;SDS011;61859;49.204;8.140;2023-12-20T07:17:46;2.43;;;2.23;;
73575;SDS011;61859;49.204;8.140;2023-12-20T07:20:11;3.10;;;2.80;;
73575;SDS011;61859;49.204;8.140;2023-12-20T07:22:37;5.30;;;3.53;;
73575;SDS011;61859;49.204;8.140;2023-12-20T07:25:03;6.60;;;3.27;;
73575;SDS011;61859;49.204;8.140;2023-12-20T07:27:29;5.67;;;3.27;;
73575;SDS011;61859;49.204;8.140;2023-12-20T07:29:54;3.77;;;2.57;;
73575;SDS011;61859;49.204;8.140;2023-12-20T07:32:20;2.60;;;2.40;;
73575;SDS011;61859;49.204;8.140;2023-12-20T07:34:45;4.40;;;2.50;;
73575;SDS011;61859;49.204;8.140;2023-12-20T07:37:11;2.63;;;2.20;;
73575;SDS011;61859;49.204;8.140;2023-12-20T07:39:39;2.40;;;2.17;;
73575;SDS011;61859;49.204;8.140;2023-12-20T07:42:06;4.60;;;2.23;;
73575;SDS011;61859;49.204;8.140;2023-12-20T07:44:32;3.17;;;2.40;;
73575;SDS011;61859;49.204;8.140;2023-12-20T07:46:57;4.70;;;2.97;;
73575;SDS011;61859;49.204;8.140;2023-12-20T07:49:23;3.33;;;2.70;;
73575;SDS011;61859;49.204;8.140;2023-12-20T07:51:49;7.00;;;3.03;;
73575;SDS011;61859;49.204;8.140;2023-12-20T07:54:15;3.00;;;2.20;;
73575;SDS011;61859;49.204;8.140;2023-12-20T07:56:40;9.13;;;4.50;;
73575;SDS011;61859;49.204;8.140;2023-12-20T07:59:06;3.03;;;2.23;;
73575;SDS011;61859;49.204;8.140;2023-12-20T08:01:32;7.83;;;3.00;;
73575;SDS011;61859;49.204;8.140;2023-12-20T08:03:57;6.43;;;2.70;;
73575;SDS011;61859;49.204;8.140;2023-12-20T08:06:23;2.87;;;2.07;;
73575;SDS011;61859;49.204;8.140;2023-12-20T08:08:48;4.00;;;2.10;;
73575;SDS011;61859;49.204;8.140;2023-12-20T08:11:14;1.40;;;1.30;;
73575;SDS011;61859;49.204;8.140;2023-12-20T08:13:39;3.13;;;1.70;;
73575;SDS011;61859;49.204;8.140;2023-12-20T08:16:05;3.97;;;2.17;;
73575;SDS011;61859;49.204;8.140;2023-12-20T08:18:30;5.83;;;1.50;;
73575;SDS011;61859;49.204;8.140;2023-12-20T08:20:56;2.30;;;1.30;;
73575;SDS011;61859;49.204;8.140;2023-12-20T08:23:21;2.33;;;1.17;;
73575;SDS011;61859;49.204;8.140;2023-12-20T08:25:47;4.27;;;1.30;;
73575;SDS011;61859;49.204;8.140;2023-12-20T08:28:13;3.53;;;1.90;;
73575;SDS011;61859;49.204;8.140;2023-12-20T08:30:38;4.40;;;1.80;;
73575;SDS011;61859;49.204;8.140;2023-12-20T08:33:06;2.83;;;1.20;;
73575;SDS011;61859;49.204;8.140;2023-12-20T08:35:36;1.67;;;0.77;;
73575;SDS011;61859;49.204;8.140;2023-12-20T08:38:01;4.40;;;1.43;;
73575;SDS011;61859;49.204;8.140;2023-12-20T08:40:29;2.07;;;1.40;;
73575;SDS011;61859;49.204;8.140;2023-12-20T08:42:54;2.57;;;1.03;;
73575;SDS011;61859;49.204;8.140;2023-12-20T08:45:20;3.03;;;1.40;;
73575;SDS011;61859;49.204;8.140;2023-12-20T08:47:45;3.43;;;1.80;;
73575;SDS011;61859;49.204;8.140;2023-12-20T08:50:11;1.37;;;1.27;;
73575;SDS011;61859;49.204;8.140;2023-12-20T08:52:37;5.03;;;1.27;;
73575;SDS011;61859;49.204;8.140;2023-12-20T08:55:03;3.00;;;2.10;;
73575;SDS011;61859;49.204;8.140;2023-12-20T08:57:28;4.03;;;1.83;;
73575;SDS011;61859;49.204;8.140;2023-12-20T08:59:54;2.60;;;1.50;;
73575;SDS011;61859;49.204;8.140;2023-12-20T09:02:20;6.97;;;1.97;;
73575;SDS011;61859;49.204;8.140;2023-12-20T09:04:45;2.50;;;1.63;;
73575;SDS011;61859;49.204;8.140;2023-12-20T09:07:20;3.40;;;1.70;;
73575;SDS011;61859;49.204;8.140;2023-12-20T09:09:50;3.93;;;1.60;;
73575;SDS011;61859;49.204;8.140;2023-12-20T09:12:19;3.63;;;1.50;;
73575;SDS011;61859;49.204;8.140;2023-12-20T09:14:49;2.07;;;1.53;;
73575;SDS011;61859;49.204;8.140;2023-12-20T09:17:18;2.50;;;1.60;;
73575;SDS011;61859;49.204;8.140;2023-12-20T09:19:45;7.07;;;1.70;;
73575;SDS011;61859;49.204;8.140;2023-12-20T09:22:11;3.87;;;1.80;;
73575;SDS011;61859;49.204;8.140;2023-12-20T09:24:37;3.13;;;1.60;;
73575;SDS011;61859;49.204;8.140;2023-12-20T09:27:03;5.10;;;1.73;;
73575;SDS011;61859;49.204;8.140;2023-12-20T09:29:30;3.87;;;1.73;;
73575;SDS011;61859;49.204;8.140;2023-12-20T09:31:56;3.70;;;1.73;;
73575;SDS011;61859;49.204;8.140;2023-12-20T09:34:22;4.87;;;1.30;;
73575;SDS011;61859;49.204;8.140;2023-12-20T09:36:48;2.27;;;1.13;;
73575;SDS011;61859;49.204;8.140;2023-12-20T09:39:14;5.40;;;1.27;;
73575;SDS011;61859;49.204;8.140;2023-12-20T09:41:42;2.23;;;1.07;;
73575;SDS011;61859;49.204;8.140;2023-12-20T09:44:10;3.70;;;1.37;;
73575;SDS011;61859;49.204;8.140;2023-12-20T09:46:44;2.37;;;1.23;;
73575;SDS011;61859;49.204;8.140;2023-12-20T09:49:14;3.47;;;1.73;;
73575;SDS011;61859;49.204;8.140;2023-12-20T09:51:40;1.87;;;1.23;;
73575;SDS011;61859;49.204;8.140;2023-12-20T09:54:07;6.57;;;2.10;;
73575;SDS011;61859;49.204;8.140;2023-12-20T09:56:32;3.80;;;1.40;;
73575;SDS011;61859;49.204;8.140;2023-12-20T09:58:59;6.10;;;1.63;;
73575;SDS011;61859;49.204;8.140;2023-12-20T10:01:24;3.83;;;1.40;;
73575;SDS011;61859;49.204;8.140;2023-12-20T10:03:51;6.00;;;1.77;;
73575;SDS011;61859;49.204;8.140;2023-12-20T10:06:19;1.67;;;1.17;;
73575;SDS011;61859;49.204;8.140;2023-12-20T10:08:45;2.10;;;1.47;;
73575;SDS011;61859;49.204;8.140;2023-12-20T10:11:11;3.87;;;1.27;;
73575;SDS011;61859;49.204;8.140;2023-12-20T10:13:40;3.13;;;1.33;;
73575;SDS011;61859;49.204;8.140;2023-12-20T10:16:06;4.90;;;1.73;;
73575;SDS011;61859;49.204;8.140;2023-12-20T10:18:35;4.67;;;1.50;;
73575;SDS011;61859;49.204;8.140;2023-12-20T10:21:01;4.10;;;1.57;;
73575;SDS011;61859;49.204;8.140;2023-12-20T10:23:28;4.90;;;1.57;;
73575;SDS011;61859;49.204;8.140;2023-12-20T10:25:57;1.57;;;1.13;;
73575;SDS011;61859;49.204;8.140;2023-12-20T10:28:25;2.10;;;1.53;;
73575;SDS011;61859;49.204;8.140;2023-12-20T10:30:53;1.53;;;1.43;;
73575;SDS011;61859;49.204;8.140;2023-12-20T10:33:24;3.60;;;1.57;;
73575;SDS011;61859;49.204;8.140;2023-12-20T10:35:50;5.50;;;1.83;;
73575;SDS011;61859;49.204;8.140;2023-12-20T10:38:17;5.50;;;1.60;;
73575;SDS011;61859;49.204;8.140;2023-12-20T10:40:42;1.27;;;1.17;;
73575;SDS011;61859;49.204;8.140;2023-12-20T10:43:10;5.00;;;1.83;;
73575;SDS011;61859;49.204;8.140;2023-12-20T10:45:36;4.43;;;1.33;;
73575;SDS011;61859;49.204;8.140;2023-12-20T10:48:02;4.83;;;2.30;;
73575;SDS011;61859;49.204;8.140;2023-12-20T10:50:29;9.80;;;2.97;;
73575;SDS011;61859;49.204;8.140;2023-12-20T10:52:56;4.43;;;2.23;;
73575;SDS011;61859;49.204;8.140;2023-12-20T10:55:22;1.73;;;1.40;;
73575;SDS011;61859;49.204;8.140;2023-12-20T10:57:51;6.20;;;2.37;;
73575;SDS011;61859;49.204;8.140;2023-12-20T11:00:17;2.20;;;2.00;;
73575;SDS011;61859;49.204;8.140;2023-12-20T11:02:45;9.47;;;2.47;;
73575;SDS011;61859;49.204;8.140;2023-12-20T11:05:23;6.33;;;2.87;;
73575;SDS011;61859;49.204;8.140;2023-12-20T11:08:02;3.93;;;1.73;;
73575;SDS011;61859;49.204;8.140;2023-12-20T11:10:39;5.03;;;2.57;;
73575;SDS011;61859;49.204;8.140;2023-12-20T11:16:32;12.00;;;2.73;;
73575;SDS011;61859;49.204;8.140;2023-12-20T11:19:04;2.47;;;1.37;;
73575;SDS011;61859;49.204;8.140;2023-12-20T11:21:30;6.40;;;2.43;;
73575;SDS011;61859;49.204;8.140;2023-12-20T11:23:56;5.73;;;2.33;;
73575;SDS011;61859;49.204;8.140;2023-12-20T11:26:30;8.70;;;2.50;;
73575;SDS011;61859;49.204;8.140;2023-12-20T11:31:57;3.53;;;2.03;;
73575;SDS011;61859;49.204;8.140;2023-12-20T11:34:26;5.30;;;2.10;;
73575;SDS011;61859;49.204;8.140;2023-12-20T11:36:56;2.63;;;0.93;;
73575;SDS011;61859;49.204;8.140;2023-12-20T11:39:23;7.13;;;2.03;;
73575;SDS011;61859;49.204;8.140;2023-12-20T11:41:51;5.03;;;2.67;;
73575;SDS011;61859;49.204;8.140;2023-12-20T11:44:18;7.33;;;3.83;;
73575;SDS011;61859;49.204;8.140;2023-12-20T11:46:44;4.00;;;2.73;;
73575;SDS011;61859;49.204;8.140;2023-12-20T11:49:09;6.43;;;2.83;;
73575;SDS011;61859;49.204;8.140;2023-12-20T11:51:35;8.90;;;2.97;;
73575;SDS011;61859;49.204;8.140;2023-12-20T11:54:05;7.23;;;3.00;;
73575;SDS011;61859;49.204;8.140;2023-12-20T11:56:30;2.50;;;2.00;;
73575;SDS011;61859;49.204;8.140;2023-12-20T11:58:56;4.20;;;2.80;;
73575;SDS011;61859;49.204;8.140;2023-12-20T12:01:21;6.10;;;1.70;;
73575;SDS011;61859;49.204;8.140;2023-12-20T12:03:47;6.03;;;2.60;;
73575;SDS011;61859;49.204;8.140;2023-12-20T12:06:12;4.67;;;2.03;;
73575;SDS011;61859;49.204;8.140;2023-12-20T12:08:38;4.93;;;2.10;;
73575;SDS011;61859;49.204;8.140;2023-12-20T12:11:04;4.90;;;2.20;;
73575;SDS011;61859;49.204;8.140;2023-12-20T12:13:29;6.10;;;2.03;;
73575;SDS011;61859;49.204;8.140;2023-12-20T12:15:55;3.03;;;1.80;;
73575;SDS011;61859;49.204;8.140;2023-12-20T12:18:21;2.17;;;1.67;;
73575;SDS011;61859;49.204;8.140;2023-12-20T12:20:46;5.03;;;2.37;;
73575;SDS011;61859;49.204;8.140;2023-12-20T12:23:12;10.33;;;3.40;;
73575;SDS011;61859;49.204;8.140;2023-12-20T12:25:37;4.57;;;2.03;;
73575;SDS011;61859;49.204;8.140;2023-12-20T12:28:03;7.50;;;2.37;;
73575;SDS011;61859;49.204;8.140;2023-12-20T12:30:29;5.20;;;2.23;;
73575;SDS011;61859;49.204;8.140;2023-12-20T12:32:55;1.20;;;1.10;;
73575;SDS011;61859;49.204;8.140;2023-12-20T12:35:22;5.00;;;1.23;;
73575;SDS011;61859;49.204;8.140;2023-12-20T12:37:48;6.40;;;2.23;;
73575;SDS011;61859;49.204;8.140;2023-12-20T12:40:14;4.63;;;1.83;;
73575;SDS011;61859;49.204;8.140;2023-12-20T12:42:42;4.33;;;1.83;;
73575;SDS011;61859;49.204;8.140;2023-12-20T12:45:08;8.13;;;1.87;;
73575;SDS011;61859;49.204;8.140;2023-12-20T12:47:34;3.47;;;1.53;;
73575;SDS011;61859;49.204;8.140;2023-12-20T12:50:00;2.80;;;1.50;;
73575;SDS011;61859;49.204;8.140;2023-12-20T12:52:26;2.57;;;1.77;;
73575;SDS011;61859;49.204;8.140;2023-12-20T12:54:52;6.13;;;1.73;;
73575;SDS011;61859;49.204;8.140;2023-12-20T12:57:18;2.33;;;1.60;;
73575;SDS011;61859;49.204;8.140;2023-12-20T12:59:44;8.13;;;1.67;;
73575;SDS011;61859;49.204;8.140;2023-12-20T13:02:13;6.67;;;2.00;;
73575;SDS011;61859;49.204;8.140;2023-12-20T13:04:39;4.70;;;2.20;;
73575;SDS011;61859;49.204;8.140;2023-12-20T13:07:08;4.93;;;2.20;;
73575;SDS011;61859;49.204;8.140;2023-12-20T13:09:37;7.90;;;2.10;;
73575;SDS011;61859;49.204;8.140;2023-12-20T13:12:04;8.33;;;2.63;;
73575;SDS011;61859;49.204;8.140;2023-12-20T13:14:32;8.77;;;3.47;;
73575;SDS011;61859;49.204;8.140;2023-12-20T13:16:59;1.63;;;1.53;;
73575;SDS011;61859;49.204;8.140;2023-12-20T13:19:25;8.23;;;2.60;;
73575;SDS011;61859;49.204;8.140;2023-12-20T13:21:50;4.53;;;1.33;;
73575;SDS011;61859;49.204;8.140;2023-12-20T13:24:16;4.33;;;1.60;;
73575;SDS011;61859;49.204;8.140;2023-12-20T13:26:42;3.57;;;1.60;;
73575;SDS011;61859;49.204;8.140;2023-12-20T13:29:07;5.70;;;1.63;;
73575;SDS011;61859;49.204;8.140;2023-12-20T13:31:33;3.53;;;1.60;;
73575;SDS011;61859;49.204;8.140;2023-12-20T13:33:58;2.37;;;1.40;;
73575;SDS011;61859;49.204;8.140;2023-12-20T13:36:25;2.97;;;1.50;;
73575;SDS011;61859;49.204;8.140;2023-12-20T13:38:51;4.07;;;1.50;;
73575;SDS011;61859;49.204;8.140;2023-12-20T13:41:16;4.50;;;1.70;;
73575;SDS011;61859;49.204;8.140;2023-12-20T13:43:42;4.43;;;1.53;;
73575;SDS011;61859;49.204;8.140;2023-12-20T13:46:07;6.50;;;1.60;;
73575;SDS011;61859;49.204;8.140;2023-12-20T13:48:34;3.10;;;1.80;;
73575;SDS011;61859;49.204;8.140;2023-12-20T13:50:59;7.00;;;3.00;;
73575;SDS011;61859;49.204;8.140;2023-12-20T13:53:25;6.43;;;2.67;;
73575;SDS011;61859;49.204;8.140;2023-12-20T13:55:51;7.07;;;2.43;;
73575;SDS011;61859;49.204;8.140;2023-12-20T13:58:16;4.77;;;2.50;;
73575;SDS011;61859;49.204;8.140;2023-12-20T14:00:42;2.53;;;2.23;;
73575;SDS011;61859;49.204;8.140;2023-12-20T14:03:07;4.80;;;2.27;;
73575;SDS011;61859;49.204;8.140;2023-12-20T14:05:34;6.87;;;1.63;;
73575;SDS011;61859;49.204;8.140;2023-12-20T14:08:00;9.13;;;2.23;;
73575;SDS011;61859;49.204;8.140;2023-12-20T14:10:26;6.37;;;2.37;;
73575;SDS011;61859;49.204;8.140;2023-12-20T14:12:52;1.27;;;0.70;;
73575;SDS011;61859;49.204;8.140;2023-12-20T14:15:18;4.10;;;1.37;;
73575;SDS011;61859;49.204;8.140;2023-12-20T14:17:43;3.97;;;1.33;;
73575;SDS011;61859;49.204;8.140;2023-12-20T14:20:09;2.70;;;1.10;;
73575;SDS011;61859;49.204;8.140;2023-12-20T14:22:37;1.77;;;1.07;;
73575;SDS011;61859;49.204;8.140;2023-12-20T14:25:03;7.73;;;2.17;;
73575;SDS011;61859;49.204;8.140;2023-12-20T14:27:29;3.07;;;1.40;;
73575;SDS011;61859;49.204;8.140;2023-12-20T14:29:55;6.50;;;2.30;;
73575;SDS011;61859;49.204;8.140;2023-12-20T14:32:21;3.43;;;1.37;;
73575;SDS011;61859;49.204;8.140;2023-12-20T14:34:47;4.77;;;1.47;;
73575;SDS011;61859;49.204;8.140;2023-12-20T14:37:12;2.93;;;1.80;;
73575;SDS011;61859;49.204;8.140;2023-12-20T14:39:39;4.87;;;1.30;;
73575;SDS011;61859;49.204;8.140;2023-12-20T14:42:06;3.67;;;1.70;;
73575;SDS011;61859;49.204;8.140;2023-12-20T14:44:36;6.20;;;1.80;;
73575;SDS011;61859;49.204;8.140;2023-12-20T14:47:01;3.87;;;2.30;;